Albian Elvedi

Chefscout - Zurich
21 Nov 2027
Sonntag
Verarbeitung

Persönlichkeit

Anpassungsfähigkeit (4) Ehrgeiz (19) Kontroverse (6) Loyalität (18) Druck (5) Professionalität (20) Fairness (11) Temperament (2)

Profil

Trainerstil Demokratisch
Lizenz Kontinentale B
Entschlossenheit 9
Menschenführung 10
Motivation 9
Disziplin 7
Arbeitszufriedenheit
100%
Ermüdung
0%
Rolle Chefscout
Gehalt 61.0K p/W
Vertrag 14.03.2029

Leistung

Verhalten Gut
Trainingseffektivität
49%
Spielerentwicklung
25%
Verletzungsprävention
50%
Taktische Umsetzung
55%

Aktuell beobachtet

113
Spieler Verein Status Fähigkeit Vertrauen Beobachtet Zuletzt beobachtet Letzte Stimme
Ishmael Addo Heart of Lions Aktiv 83 / 113 40% 4 31.08.2027 -
Leonel Jaime River Plate Aktiv 110 / 110 40% 2 31.08.2027 -
Abubakar Garba Nasarawa United Aktiv 100 / 97 40% 1 31.08.2027 -
Exequiel Mereles Nacional Aktiv 104 / 122 40% 4 30.08.2027 -
Xavier Jodamus US Bougouni Aktiv 75 / 100 40% 1 30.08.2027 -
Alex Amaefula Kun Khalifat Aktiv 77 / 95 40% 2 26.08.2027 -
Emmanuel Ndubueze Shooting Stars Aktiv 95 / 88 40% 2 26.08.2027 -
Jeremías Lucco Belgrano Aktiv 126 / 137 40% 1 26.08.2027 -
Gustavo Lozano Zamora Aktiv 104 / 90 40% 1 25.08.2027 -
Juan José Cataño Envigado Aktiv 86 / 97 40% 1 25.08.2027 -
Jet Lee Espín Millonarios Aktiv 90 / 98 40% 1 24.08.2027 -
Jeffrey Annan Hasaacas Aktiv 93 / 100 40% 5 23.08.2027 -
Axel Tape TSG Hoffenheim Aktiv 127 / 140 40% 1 23.08.2027 -
Andrija Maksimović VfL Wolfsburg Aktiv 133 / 137 40% 4 22.08.2027 -
Elias Baum Eintracht Frankfurt Aktiv 127 / 138 40% 5 22.08.2027 -
Keita Kosugi Eintracht Frankfurt Aktiv 133 / 131 40% 1 22.08.2027 -
Otto Stange Hamburger SV Aktiv 128 / 134 40% 5 20.08.2027 -
Mattia Rutigliano Pro Vercelli Aktiv 103 / 106 40% 2 20.08.2027 -
Wisdom Udom Bendel Insurance Aktiv 99 / 77 40% 2 19.08.2027 -
Maren Kefas Plateau United Aktiv 90 / 86 40% 2 18.08.2027 -
Niclas Anspach Thun Verloren 112 / 111 72% 1 16.08.2027 Befürworten
Yannik Wagner Heidenheim Aktiv 110 / 106 40% 3 12.08.2027 -
Daniel Banjaqui Benfica Aktiv 115 / 128 40% 6 08.08.2027 -
Oscar Schwartau Norwich City Aktiv 128 / 139 40% 2 08.08.2027 -
Josh King Fulham Aktiv 149 / 152 40% 1 08.08.2027 -
Jayden Addai Como Aktiv 141 / 147 40% 2 07.08.2027 -
Ethan Williams Peterborough United Aktiv 122 / 127 40% 4 07.08.2027 -
Leo Castledine Middlesbrough Aktiv 138 / 132 40% 1 06.08.2027 -
Aidan West Gillingham Aktiv 89 / 95 40% 5 04.08.2027 -
Cundo Leicester City Aktiv 131 / 139 40% 2 04.08.2027 -
Chris Rigg Bournemouth Aktiv 136 / 138 40% 2 04.08.2027 -
Asanele Bonani Chippa United Aktiv 91 / 97 40% 7 02.08.2027 -
Reuben Reid Charlton Athletic Aktiv 95 / 114 40% 2 02.08.2027 -
Mfundo Vilakazi Kaizer Chiefs Aktiv 129 / 129 40% 6 01.08.2027 -
Othmane Maamma Watford Aktiv 130 / 133 40% 1 01.08.2027 -
Salvador Blopá Sporting CP Aktiv 113 / 121 40% 6 28.07.2027 -
Billy Blacker Chesterfield Aktiv 97 / 103 40% 4 28.07.2027 -
Sindre Walle Egeli Ipswich Town Aktiv 135 / 138 40% 2 28.07.2027 -
Harrison Bettoni Wigan Athletic Aktiv 99 / 102 40% 2 26.07.2027 -
Rayan Bournemouth Aktiv 141 / 145 40% 2 25.07.2027 -
Ollie Scarles West Ham United Aktiv 136 / 135 40% 1 22.07.2027 -
Caleb Yirenkyi Coventry City Aktiv 143 / 140 40% 1 20.07.2027 -
Kamarni Ryan Pro Vercelli Aktiv 92 / 100 40% 2 19.07.2027 -
Honest Ahanor Udinese Aktiv 134 / 131 40% 1 18.07.2027 -
Jonathan Bland Barnsley Aktiv 112 / 111 40% 3 16.07.2027 -
Izan Merino Málaga Aktiv 133 / 138 40% 6 16.07.2027 -
Paulo Iago Sporting CP Aktiv 99 / 103 40% 1 13.07.2027 -
Kaion Lisbie Colchester United Aktiv 83 / 94 40% 3 11.07.2027 -
Andile Furman Free State Stars Aktiv 109 / 124 40% 1 11.07.2027 -
Isaac England Shrewsbury Town Aktiv 85 / 93 40% 3 09.07.2027 -
İsak Vural Pisa Aktiv 117 / 117 40% 1 09.07.2027 -
Jack Shorrock Port Vale Aktiv 100 / 94 40% 3 07.07.2027 -
Jan Bürger Burton Albion Aktiv 112 / 127 40% 2 07.07.2027 -
Callum Tripp Milton Keynes Dons Aktiv 92 / 97 40% 3 07.07.2027 -
Edoardo Cuel Virtus Verona Aktiv 86 / 77 40% 1 06.07.2027 -
Mateus Mide Porto Aktiv 103 / 105 40% 1 06.07.2027 -
André Miranda Porto Aktiv 110 / 110 40% 1 05.07.2027 -
Manu Rodríguez Gijón Aktiv 103 / 108 40% 3 04.07.2027 -
Calum Agius Crewe Alexandra Aktiv 98 / 104 40% 3 04.07.2027 -
Samuele Inácio Borussia Dortmund Aktiv 108 / 121 40% 1 03.07.2027 -
Pedro Borges Exeter City Aktiv 82 / 84 40% 2 02.07.2027 -
Molemo Seemela Zvezda Aktiv 86 / 64 40% 3 01.07.2027 -
Landerson Moreirense Aktiv 106 / 109 40% 1 30.06.2027 -
Joel McGregor Swindon Town Aktiv 95 / 91 40% 1 30.06.2027 -
Stevan Manuel Benfica Aktiv 98 / 115 40% 1 27.06.2027 -
Louis Page West Ham United Aktiv 124 / 132 40% 2 26.06.2027 -
Peter Amidu Acquah Asante Kotoko Aktiv 104 / 88 40% 1 17.06.2027 -
Joe Knight Stevenage Aktiv 103 / 103 40% 3 16.06.2027 -
Ronan Kpakio West Bromwich Albion Aktiv 121 / 121 40% 6 15.06.2027 -
Lucas Jetten Cambuur Aktiv 119 / 124 40% 2 15.06.2027 -
Kevin Csoboth St. Gallen Verloren 108 / 101 72% 1 14.06.2027 Befürworten
Mattia Mannini Juve Stabia Aktiv 114 / 119 40% 2 13.06.2027 -
Cheveyo Tsawa Club Brugge Aktiv 127 / 138 40% 1 13.06.2027 -
Luca Maiorano Pro Patria Aktiv 99 / 93 40% 1 13.06.2027 -
Ibrahim Fullah Charlton Athletic Aktiv 113 / 119 40% 1 12.06.2027 -
Themba Tau Ajax Cape Town Aktiv 109 / 120 40% 1 05.06.2027 -
Fernando Forestieri Standard Liege Aktiv 125 / 125 66% 1 01.06.2027 Befürworten
Olivier Mambwa Young Boys Bericht bereit 98 / 118 72% 1 01.06.2027 Befürworten
Jayden Spier Willem II Aktiv 96 / 103 40% 1 31.01.2027 -
Luis Engelns TSG Hoffenheim Aktiv 110 / 119 40% 2 30.01.2027 -
Maeson King Portsmouth Aktiv 111 / 118 40% 2 29.01.2027 -
David Đurić Wolfsberger AC Aktiv 98 / 90 40% 1 27.01.2027 -
Lautaro Vargas Unión de Santa Fe Aktiv 118 / 126 40% 1 26.01.2027 Mehr Infos nötig
Corsin Konietzke St. Gallen Aktiv 105 / 111 72% 1 25.01.2027 Befürworten
Raphael Posch Mattersburg Aktiv 105 / 122 40% 1 24.01.2027 -
Samuel Marques Grasshopper Aktiv 112 / 122 40% 2 21.01.2027 -
Arjan Malić Sturm Graz Aktiv 121 / 131 40% 2 20.01.2027 -
Maxim Radchenko Rostov Aktiv 72 / 93 40% 1 20.01.2027 -
Kazunari Kita Real Sociedad Aktiv 91 / 94 40% 2 19.01.2027 -
Rhys Walters Port Vale Aktiv 102 / 98 40% 1 19.01.2027 -
James Dornelly Peterborough United Aktiv 97 / 105 40% 1 18.01.2027 -
Patrice Čović Werder Bremen Aktiv 105 / 115 40% 2 16.01.2027 -
Mirza Ćatović VfB Stuttgart Aktiv 117 / 119 40% 2 16.01.2027 -
Joane Gadou Borussia Dortmund Aktiv 124 / 129 40% 2 15.01.2027 -
Surprise Manthosi Polokwane City Aktiv 85 / 98 40% 1 15.01.2027 -
Paul Okon-Engstler Köln Aktiv 108 / 109 40% 1 13.01.2027 -
Themba Zwane Belgrano Aktiv 132 / 132 66% 1 11.01.2027 Befürworten
Edwin Asamoah Berekum Chelsea Aktiv 76 / 71 40% 1 08.01.2027 -
Filip Taraba Istra 1961 Aktiv 101 / 123 40% 1 06.01.2027 -
Owen Lunt Crewe Alexandra Aktiv 96 / 100 40% 1 04.01.2027 -
Matteo Pérez Vinlöf Dinamo Zagreb Aktiv 117 / 140 40% 1 04.01.2027 -
Paul Marin Pandurii Aktiv 122 / 122 40% 1 02.01.2027 -
Percy Zungu Platinum Stars Aktiv 84 / 98 40% 1 01.01.2027 -
Ercan Kara Rapid Wien Aktiv 118 / 112 40% 1 24.08.2026 -
Marcus Ingvartsen San Diego Football Club Aktiv 121 / 115 40% 1 17.08.2026 -
Rilind Nivokazi Sion Aktiv 122 / 108 40% 1 17.08.2026 -
Marcel Monsberger Vaduz Aktiv 102 / 100 69% 1 10.08.2026 Befürworten
Timo Werner San Jose Earthquakes Aktiv 127 / 134 40% 1 10.08.2026 -
Miguel Navarro Colorado Rapids Aktiv 132 / 120 40% 1 03.08.2026 -
Marko Alaba Mattersburg Aktiv 104 / 109 40% 1 03.08.2026 -
Pius Dorn Luzern Aktiv 127 / 110 40% 1 03.08.2026 -
Hannes Delcroix Lugano Aktiv 120 / 114 40% 1 01.08.2026 -
Femi Seriki Sheffield United Aktiv 131 / 124 40% 1 01.08.2026 -